sensor_id;sensor_type;location;lat;lon;timestamp;P1;durP1;ratioP1;P2;durP2;ratioP2
13520;SDS011;6832;51.186;3.236;2024-02-14T00:00:00;39.87;;;12.67;;
13520;SDS011;6832;51.186;3.236;2024-02-14T00:02:27;40.50;;;12.07;;
13520;SDS011;6832;51.186;3.236;2024-02-14T00:04:56;31.70;;;10.50;;
13520;SDS011;6832;51.186;3.236;2024-02-14T00:07:23;34.87;;;11.23;;
13520;SDS011;6832;51.186;3.236;2024-02-14T00:09:51;39.27;;;10.37;;
13520;SDS011;6832;51.186;3.236;2024-02-14T00:12:19;34.43;;;12.23;;
13520;SDS011;6832;51.186;3.236;2024-02-14T00:14:45;39.13;;;10.83;;
13520;SDS011;6832;51.186;3.236;2024-02-14T00:17:13;38.27;;;10.13;;
13520;SDS011;6832;51.186;3.236;2024-02-14T00:19:40;54.03;;;12.87;;
13520;SDS011;6832;51.186;3.236;2024-02-14T00:22:08;67.53;;;12.83;;
13520;SDS011;6832;51.186;3.236;2024-02-14T00:24:35;44.77;;;10.90;;
13520;SDS011;6832;51.186;3.236;2024-02-14T00:27:02;22.27;;;10.20;;
13520;SDS011;6832;51.186;3.236;2024-02-14T00:29:29;36.70;;;10.80;;
13520;SDS011;6832;51.186;3.236;2024-02-14T00:31:59;36.27;;;11.63;;
13520;SDS011;6832;51.186;3.236;2024-02-14T00:34:26;40.57;;;11.23;;
13520;SDS011;6832;51.186;3.236;2024-02-14T00:36:52;29.90;;;10.73;;
13520;SDS011;6832;51.186;3.236;2024-02-14T00:39:21;38.63;;;11.70;;
13520;SDS011;6832;51.186;3.236;2024-02-14T00:41:47;37.50;;;10.40;;
13520;SDS011;6832;51.186;3.236;2024-02-14T00:44:15;32.33;;;10.43;;
13520;SDS011;6832;51.186;3.236;2024-02-14T00:46:43;38.63;;;11.17;;
13520;SDS011;6832;51.186;3.236;2024-02-14T00:49:11;37.33;;;10.93;;
13520;SDS011;6832;51.186;3.236;2024-02-14T00:51:38;44.13;;;11.37;;
13520;SDS011;6832;51.186;3.236;2024-02-14T00:54:05;30.67;;;9.87;;
13520;SDS011;6832;51.186;3.236;2024-02-14T00:56:34;50.90;;;12.07;;
13520;SDS011;6832;51.186;3.236;2024-02-14T00:59:01;39.27;;;11.33;;
13520;SDS011;6832;51.186;3.236;2024-02-14T01:01:28;33.40;;;11.23;;
13520;SDS011;6832;51.186;3.236;2024-02-14T01:03:55;36.30;;;10.97;;
13520;SDS011;6832;51.186;3.236;2024-02-14T01:06:22;38.87;;;11.23;;
13520;SDS011;6832;51.186;3.236;2024-02-14T01:08:49;42.47;;;12.03;;
13520;SDS011;6832;51.186;3.236;2024-02-14T01:11:16;31.73;;;9.57;;
13520;SDS011;6832;51.186;3.236;2024-02-14T01:13:45;40.73;;;11.13;;
13520;SDS011;6832;51.186;3.236;2024-02-14T01:16:11;36.83;;;10.73;;
13520;SDS011;6832;51.186;3.236;2024-02-14T01:18:39;36.27;;;10.33;;
13520;SDS011;6832;51.186;3.236;2024-02-14T01:21:06;35.70;;;11.37;;
13520;SDS011;6832;51.186;3.236;2024-02-14T01:23:33;35.47;;;10.27;;
13520;SDS011;6832;51.186;3.236;2024-02-14T01:26:00;35.70;;;11.03;;
13520;SDS011;6832;51.186;3.236;2024-02-14T01:28:28;36.97;;;11.80;;
13520;SDS011;6832;51.186;3.236;2024-02-14T01:30:56;47.00;;;11.67;;
13520;SDS011;6832;51.186;3.236;2024-02-14T01:33:23;32.13;;;11.33;;
13520;SDS011;6832;51.186;3.236;2024-02-14T01:35:51;39.13;;;12.10;;
13520;SDS011;6832;51.186;3.236;2024-02-14T01:38:18;35.60;;;11.37;;
13520;SDS011;6832;51.186;3.236;2024-02-14T01:40:44;33.43;;;11.13;;
13520;SDS011;6832;51.186;3.236;2024-02-14T01:43:13;34.43;;;11.03;;
13520;SDS011;6832;51.186;3.236;2024-02-14T01:45:40;38.20;;;11.50;;
13520;SDS011;6832;51.186;3.236;2024-02-14T01:48:08;34.13;;;10.40;;
13520;SDS011;6832;51.186;3.236;2024-02-14T01:50:37;30.53;;;10.53;;
13520;SDS011;6832;51.186;3.236;2024-02-14T01:53:06;34.27;;;10.93;;
13520;SDS011;6832;51.186;3.236;2024-02-14T01:55:33;31.47;;;10.13;;
13520;SDS011;6832;51.186;3.236;2024-02-14T01:58:01;42.50;;;12.87;;
13520;SDS011;6832;51.186;3.236;2024-02-14T02:00:29;36.17;;;11.17;;
13520;SDS011;6832;51.186;3.236;2024-02-14T02:02:57;36.93;;;11.60;;
13520;SDS011;6832;51.186;3.236;2024-02-14T02:05:26;33.47;;;11.60;;
13520;SDS011;6832;51.186;3.236;2024-02-14T02:07:53;39.30;;;12.50;;
13520;SDS011;6832;51.186;3.236;2024-02-14T02:10:20;37.60;;;11.43;;
13520;SDS011;6832;51.186;3.236;2024-02-14T02:12:47;33.73;;;10.40;;
13520;SDS011;6832;51.186;3.236;2024-02-14T02:15:16;32.07;;;10.80;;
13520;SDS011;6832;51.186;3.236;2024-02-14T02:17:43;36.20;;;11.43;;
13520;SDS011;6832;51.186;3.236;2024-02-14T02:20:11;52.17;;;12.47;;
13520;SDS011;6832;51.186;3.236;2024-02-14T02:22:42;44.67;;;10.97;;
13520;SDS011;6832;51.186;3.236;2024-02-14T02:25:12;44.13;;;11.90;;
13520;SDS011;6832;51.186;3.236;2024-02-14T02:27:39;37.33;;;12.17;;
13520;SDS011;6832;51.186;3.236;2024-02-14T02:30:06;39.87;;;11.83;;
13520;SDS011;6832;51.186;3.236;2024-02-14T02:32:35;62.37;;;13.20;;
13520;SDS011;6832;51.186;3.236;2024-02-14T02:35:03;23.50;;;10.30;;
13520;SDS011;6832;51.186;3.236;2024-02-14T02:37:30;36.00;;;11.47;;
13520;SDS011;6832;51.186;3.236;2024-02-14T02:39:58;35.00;;;12.17;;
13520;SDS011;6832;51.186;3.236;2024-02-14T02:42:25;42.43;;;18.20;;
13520;SDS011;6832;51.186;3.236;2024-02-14T02:44:54;31.50;;;10.60;;
13520;SDS011;6832;51.186;3.236;2024-02-14T02:47:21;38.07;;;11.73;;
13520;SDS011;6832;51.186;3.236;2024-02-14T02:49:47;37.73;;;11.03;;
13520;SDS011;6832;51.186;3.236;2024-02-14T02:52:14;36.13;;;11.27;;
13520;SDS011;6832;51.186;3.236;2024-02-14T02:54:42;30.30;;;11.10;;
13520;SDS011;6832;51.186;3.236;2024-02-14T02:57:11;38.93;;;11.73;;
13520;SDS011;6832;51.186;3.236;2024-02-14T02:59:38;37.50;;;10.77;;
13520;SDS011;6832;51.186;3.236;2024-02-14T03:02:07;35.70;;;11.47;;
13520;SDS011;6832;51.186;3.236;2024-02-14T03:04:37;33.77;;;10.37;;
13520;SDS011;6832;51.186;3.236;2024-02-14T03:07:04;36.27;;;11.33;;
13520;SDS011;6832;51.186;3.236;2024-02-14T03:09:33;30.40;;;11.77;;
13520;SDS011;6832;51.186;3.236;2024-02-14T03:12:01;25.83;;;9.53;;
13520;SDS011;6832;51.186;3.236;2024-02-14T03:14:29;40.93;;;11.17;;
13520;SDS011;6832;51.186;3.236;2024-02-14T03:16:58;29.47;;;9.70;;
13520;SDS011;6832;51.186;3.236;2024-02-14T03:19:26;45.87;;;12.47;;
13520;SDS011;6832;51.186;3.236;2024-02-14T03:21:53;55.20;;;11.43;;
13520;SDS011;6832;51.186;3.236;2024-02-14T03:24:20;43.20;;;11.17;;
13520;SDS011;6832;51.186;3.236;2024-02-14T03:26:47;36.53;;;10.97;;
13520;SDS011;6832;51.186;3.236;2024-02-14T03:29:16;29.63;;;10.40;;
13520;SDS011;6832;51.186;3.236;2024-02-14T03:31:45;37.83;;;10.20;;
13520;SDS011;6832;51.186;3.236;2024-02-14T03:34:12;36.40;;;10.60;;
13520;SDS011;6832;51.186;3.236;2024-02-14T03:36:39;36.93;;;10.47;;
13520;SDS011;6832;51.186;3.236;2024-02-14T03:39:06;40.47;;;10.97;;
13520;SDS011;6832;51.186;3.236;2024-02-14T03:41:33;36.93;;;10.90;;
13520;SDS011;6832;51.186;3.236;2024-02-14T03:44:00;30.40;;;10.70;;
13520;SDS011;6832;51.186;3.236;2024-02-14T03:46:28;50.37;;;11.30;;
13520;SDS011;6832;51.186;3.236;2024-02-14T03:48:56;38.30;;;10.83;;
13520;SDS011;6832;51.186;3.236;2024-02-14T03:51:23;35.80;;;11.77;;
13520;SDS011;6832;51.186;3.236;2024-02-14T03:53:50;43.20;;;11.40;;
13520;SDS011;6832;51.186;3.236;2024-02-14T03:56:17;33.00;;;9.83;;
13520;SDS011;6832;51.186;3.236;2024-02-14T03:58:44;34.77;;;11.83;;
13520;SDS011;6832;51.186;3.236;2024-02-14T04:01:12;52.37;;;12.13;;
13520;SDS011;6832;51.186;3.236;2024-02-14T04:03:39;27.10;;;10.67;;
13520;SDS011;6832;51.186;3.236;2024-02-14T04:06:07;37.03;;;10.63;;
13520;SDS011;6832;51.186;3.236;2024-02-14T04:08:34;49.87;;;11.53;;
13520;SDS011;6832;51.186;3.236;2024-02-14T04:11:01;32.47;;;11.37;;
13520;SDS011;6832;51.186;3.236;2024-02-14T04:13:28;32.53;;;10.67;;
13520;SDS011;6832;51.186;3.236;2024-02-14T04:15:55;47.90;;;12.33;;
13520;SDS011;6832;51.186;3.236;2024-02-14T04:18:22;40.90;;;11.80;;
13520;SDS011;6832;51.186;3.236;2024-02-14T04:20:48;37.03;;;10.20;;
13520;SDS011;6832;51.186;3.236;2024-02-14T04:23:17;31.10;;;10.33;;
13520;SDS011;6832;51.186;3.236;2024-02-14T04:25:44;26.43;;;9.67;;
13520;SDS011;6832;51.186;3.236;2024-02-14T04:28:11;40.03;;;11.13;;
13520;SDS011;6832;51.186;3.236;2024-02-14T04:30:39;36.30;;;10.63;;
13520;SDS011;6832;51.186;3.236;2024-02-14T04:33:07;35.80;;;10.40;;
13520;SDS011;6832;51.186;3.236;2024-02-14T04:35:34;29.67;;;10.30;;
13520;SDS011;6832;51.186;3.236;2024-02-14T04:38:01;37.43;;;11.57;;
13520;SDS011;6832;51.186;3.236;2024-02-14T04:40:30;34.63;;;10.27;;
13520;SDS011;6832;51.186;3.236;2024-02-14T04:42:57;36.70;;;11.03;;
13520;SDS011;6832;51.186;3.236;2024-02-14T04:45:23;23.33;;;9.67;;
13520;SDS011;6832;51.186;3.236;2024-02-14T04:47:51;45.13;;;12.43;;
13520;SDS011;6832;51.186;3.236;2024-02-14T04:50:18;38.70;;;10.73;;
13520;SDS011;6832;51.186;3.236;2024-02-14T04:52:45;30.97;;;11.13;;
13520;SDS011;6832;51.186;3.236;2024-02-14T04:55:12;38.60;;;11.17;;
13520;SDS011;6832;51.186;3.236;2024-02-14T04:57:40;55.10;;;12.37;;
13520;SDS011;6832;51.186;3.236;2024-02-14T05:00:07;34.50;;;11.13;;
13520;SDS011;6832;51.186;3.236;2024-02-14T05:02:35;33.83;;;10.53;;
13520;SDS011;6832;51.186;3.236;2024-02-14T05:05:02;38.53;;;12.03;;
13520;SDS011;6832;51.186;3.236;2024-02-14T05:07:30;34.93;;;10.67;;
13520;SDS011;6832;51.186;3.236;2024-02-14T05:09:59;41.50;;;11.23;;
13520;SDS011;6832;51.186;3.236;2024-02-14T05:12:26;55.00;;;12.30;;
13520;SDS011;6832;51.186;3.236;2024-02-14T05:14:54;37.37;;;11.27;;
13520;SDS011;6832;51.186;3.236;2024-02-14T05:17:21;37.23;;;11.60;;
13520;SDS011;6832;51.186;3.236;2024-02-14T05:19:48;40.13;;;11.20;;
13520;SDS011;6832;51.186;3.236;2024-02-14T05:22:15;40.80;;;11.20;;
13520;SDS011;6832;51.186;3.236;2024-02-14T05:24:43;28.47;;;10.10;;
13520;SDS011;6832;51.186;3.236;2024-02-14T05:27:11;37.23;;;10.90;;
13520;SDS011;6832;51.186;3.236;2024-02-14T05:29:38;40.07;;;12.07;;
13520;SDS011;6832;51.186;3.236;2024-02-14T05:32:06;32.57;;;10.37;;
13520;SDS011;6832;51.186;3.236;2024-02-14T05:34:34;34.50;;;11.97;;
13520;SDS011;6832;51.186;3.236;2024-02-14T05:37:01;43.30;;;11.70;;
13520;SDS011;6832;51.186;3.236;2024-02-14T05:39:28;31.73;;;10.30;;
13520;SDS011;6832;51.186;3.236;2024-02-14T05:41:55;36.90;;;11.00;;
13520;SDS011;6832;51.186;3.236;2024-02-14T05:44:22;33.30;;;11.00;;
13520;SDS011;6832;51.186;3.236;2024-02-14T05:46:48;50.30;;;11.50;;
13520;SDS011;6832;51.186;3.236;2024-02-14T05:49:17;42.73;;;11.70;;
13520;SDS011;6832;51.186;3.236;2024-02-14T05:51:44;35.23;;;10.57;;
13520;SDS011;6832;51.186;3.236;2024-02-14T05:54:10;43.87;;;12.70;;
13520;SDS011;6832;51.186;3.236;2024-02-14T05:56:37;37.23;;;11.27;;
13520;SDS011;6832;51.186;3.236;2024-02-14T05:59:04;34.63;;;10.47;;
13520;SDS011;6832;51.186;3.236;2024-02-14T06:01:31;33.57;;;11.80;;
13520;SDS011;6832;51.186;3.236;2024-02-14T06:03:58;38.07;;;10.20;;
13520;SDS011;6832;51.186;3.236;2024-02-14T06:06:26;32.47;;;11.30;;
13520;SDS011;6832;51.186;3.236;2024-02-14T06:08:53;32.00;;;10.53;;
13520;SDS011;6832;51.186;3.236;2024-02-14T06:11:20;54.70;;;12.53;;
13520;SDS011;6832;51.186;3.236;2024-02-14T06:13:47;36.07;;;12.40;;
13520;SDS011;6832;51.186;3.236;2024-02-14T06:16:14;44.10;;;10.77;;
13520;SDS011;6832;51.186;3.236;2024-02-14T06:18:41;40.03;;;11.13;;
13520;SDS011;6832;51.186;3.236;2024-02-14T06:21:07;36.13;;;12.00;;
13520;SDS011;6832;51.186;3.236;2024-02-14T06:23:36;39.50;;;12.20;;
13520;SDS011;6832;51.186;3.236;2024-02-14T06:26:04;46.40;;;12.33;;
13520;SDS011;6832;51.186;3.236;2024-02-14T06:28:31;41.27;;;11.63;;
13520;SDS011;6832;51.186;3.236;2024-02-14T06:30:58;42.27;;;11.73;;
13520;SDS011;6832;51.186;3.236;2024-02-14T06:33:25;48.13;;;12.97;;
13520;SDS011;6832;51.186;3.236;2024-02-14T06:35:53;34.03;;;10.67;;
13520;SDS011;6832;51.186;3.236;2024-02-14T06:38:20;41.47;;;11.30;;
13520;SDS011;6832;51.186;3.236;2024-02-14T06:40:49;59.63;;;11.90;;
13520;SDS011;6832;51.186;3.236;2024-02-14T06:43:16;46.90;;;12.33;;
13520;SDS011;6832;51.186;3.236;2024-02-14T06:45:42;37.20;;;11.40;;
13520;SDS011;6832;51.186;3.236;2024-02-14T06:48:09;34.87;;;10.47;;
13520;SDS011;6832;51.186;3.236;2024-02-14T06:50:36;37.57;;;12.03;;
13520;SDS011;6832;51.186;3.236;2024-02-14T06:53:03;32.57;;;10.83;;
13520;SDS011;6832;51.186;3.236;2024-02-14T06:55:30;52.67;;;12.03;;
13520;SDS011;6832;51.186;3.236;2024-02-14T06:57:59;32.43;;;10.80;;
13520;SDS011;6832;51.186;3.236;2024-02-14T07:00:26;41.07;;;11.10;;
13520;SDS011;6832;51.186;3.236;2024-02-14T07:02:54;33.23;;;11.47;;
13520;SDS011;6832;51.186;3.236;2024-02-14T07:05:20;47.70;;;11.40;;
13520;SDS011;6832;51.186;3.236;2024-02-14T07:07:48;39.37;;;11.73;;
13520;SDS011;6832;51.186;3.236;2024-02-14T07:10:15;33.37;;;13.20;;
13520;SDS011;6832;51.186;3.236;2024-02-14T07:12:42;43.10;;;10.93;;
13520;SDS011;6832;51.186;3.236;2024-02-14T07:15:10;36.70;;;10.93;;
13520;SDS011;6832;51.186;3.236;2024-02-14T07:17:37;39.97;;;11.13;;
13520;SDS011;6832;51.186;3.236;2024-02-14T07:20:05;37.73;;;11.67;;
13520;SDS011;6832;51.186;3.236;2024-02-14T07:22:34;78.17;;;13.60;;
13520;SDS011;6832;51.186;3.236;2024-02-14T07:25:01;38.40;;;11.43;;
13520;SDS011;6832;51.186;3.236;2024-02-14T07:27:30;41.00;;;11.00;;
13520;SDS011;6832;51.186;3.236;2024-02-14T07:29:57;41.67;;;11.77;;
13520;SDS011;6832;51.186;3.236;2024-02-14T07:32:25;35.20;;;14.52;;
13520;SDS011;6832;51.186;3.236;2024-02-14T07:34:53;34.77;;;16.43;;
13520;SDS011;6832;51.186;3.236;2024-02-14T07:37:19;50.33;;;16.87;;
13520;SDS011;6832;51.186;3.236;2024-02-14T07:39:46;39.33;;;16.13;;
13520;SDS011;6832;51.186;3.236;2024-02-14T07:42:14;40.23;;;17.80;;
13520;SDS011;6832;51.186;3.236;2024-02-14T07:44:40;34.03;;;15.87;;
13520;SDS011;6832;51.186;3.236;2024-02-14T07:47:07;36.93;;;17.23;;
13520;SDS011;6832;51.186;3.236;2024-02-14T07:49:36;41.67;;;17.50;;
13520;SDS011;6832;51.186;3.236;2024-02-14T07:52:03;41.10;;;16.63;;
13520;SDS011;6832;51.186;3.236;2024-02-14T07:54:30;59.63;;;17.97;;
13520;SDS011;6832;51.186;3.236;2024-02-14T07:56:57;34.90;;;16.10;;
13520;SDS011;6832;51.186;3.236;2024-02-14T07:59:24;38.70;;;15.93;;
13520;SDS011;6832;51.186;3.236;2024-02-14T08:01:51;46.70;;;16.03;;
13520;SDS011;6832;51.186;3.236;2024-02-14T08:04:17;48.40;;;17.30;;
13520;SDS011;6832;51.186;3.236;2024-02-14T08:06:46;44.80;;;17.13;;
13520;SDS011;6832;51.186;3.236;2024-02-14T08:09:14;41.60;;;16.50;;
13520;SDS011;6832;51.186;3.236;2024-02-14T08:11:41;44.93;;;16.37;;
13520;SDS011;6832;51.186;3.236;2024-02-14T08:14:07;43.27;;;15.47;;
13520;SDS011;6832;51.186;3.236;2024-02-14T08:16:34;44.03;;;17.37;;
13520;SDS011;6832;51.186;3.236;2024-02-14T08:19:01;35.10;;;15.80;;
13520;SDS011;6832;51.186;3.236;2024-02-14T08:21:28;40.00;;;15.27;;
13520;SDS011;6832;51.186;3.236;2024-02-14T08:23:57;55.30;;;17.70;;
13520;SDS011;6832;51.186;3.236;2024-02-14T08:26:24;36.40;;;15.10;;
13520;SDS011;6832;51.186;3.236;2024-02-14T08:28:51;43.57;;;17.13;;
13520;SDS011;6832;51.186;3.236;2024-02-14T08:31:19;33.07;;;16.47;;
13520;SDS011;6832;51.186;3.236;2024-02-14T08:33:46;44.03;;;16.13;;
13520;SDS011;6832;51.186;3.236;2024-02-14T08:36:13;36.07;;;16.67;;
13520;SDS011;6832;51.186;3.236;2024-02-14T08:38:41;53.03;;;17.37;;
13520;SDS011;6832;51.186;3.236;2024-02-14T08:41:10;42.03;;;16.47;;
13520;SDS011;6832;51.186;3.236;2024-02-14T08:43:39;33.77;;;15.67;;
13520;SDS011;6832;51.186;3.236;2024-02-14T08:46:09;37.70;;;17.00;;
13520;SDS011;6832;51.186;3.236;2024-02-14T08:48:36;32.47;;;16.53;;
13520;SDS011;6832;51.186;3.236;2024-02-14T08:51:07;36.93;;;15.87;;
13520;SDS011;6832;51.186;3.236;2024-02-14T08:53:34;40.30;;;16.23;;
13520;SDS011;6832;51.186;3.236;2024-02-14T08:56:01;50.70;;;16.77;;
13520;SDS011;6832;51.186;3.236;2024-02-14T08:58:29;42.97;;;17.57;;
13520;SDS011;6832;51.186;3.236;2024-02-14T09:00:56;43.43;;;16.17;;
13520;SDS011;6832;51.186;3.236;2024-02-14T09:03:23;30.73;;;15.33;;
13520;SDS011;6832;51.186;3.236;2024-02-14T09:05:50;46.23;;;18.53;;
13520;SDS011;6832;51.186;3.236;2024-02-14T09:08:18;43.10;;;16.83;;
13520;SDS011;6832;51.186;3.236;2024-02-14T09:10:45;36.57;;;17.17;;
13520;SDS011;6832;51.186;3.236;2024-02-14T09:13:13;36.47;;;16.33;;
13520;SDS011;6832;51.186;3.236;2024-02-14T09:15:42;46.63;;;17.43;;
13520;SDS011;6832;51.186;3.236;2024-02-14T09:18:10;35.93;;;17.03;;
13520;SDS011;6832;51.186;3.236;2024-02-14T09:20:37;39.70;;;16.20;;
13520;SDS011;6832;51.186;3.236;2024-02-14T09:23:04;45.33;;;17.53;;
13520;SDS011;6832;51.186;3.236;2024-02-14T09:25:31;45.40;;;16.93;;
13520;SDS011;6832;51.186;3.236;2024-02-14T09:27:58;45.13;;;18.20;;
13520;SDS011;6832;51.186;3.236;2024-02-14T09:30:25;46.50;;;19.67;;
13520;SDS011;6832;51.186;3.236;2024-02-14T09:32:53;34.63;;;16.10;;
13520;SDS011;6832;51.186;3.236;2024-02-14T09:35:20;50.93;;;18.73;;
13520;SDS011;6832;51.186;3.236;2024-02-14T09:37:47;34.43;;;16.63;;
13520;SDS011;6832;51.186;3.236;2024-02-14T09:40:14;37.77;;;17.00;;
13520;SDS011;6832;51.186;3.236;2024-02-14T09:42:43;41.43;;;16.97;;
13520;SDS011;6832;51.186;3.236;2024-02-14T09:45:11;32.83;;;15.80;;
13520;SDS011;6832;51.186;3.236;2024-02-14T09:47:38;65.73;;;19.90;;
13520;SDS011;6832;51.186;3.236;2024-02-14T09:50:08;58.43;;;17.50;;
13520;SDS011;6832;51.186;3.236;2024-02-14T09:52:38;61.53;;;18.23;;
13520;SDS011;6832;51.186;3.236;2024-02-14T09:55:05;42.40;;;17.03;;
13520;SDS011;6832;51.186;3.236;2024-02-14T09:57:32;38.13;;;15.43;;
13520;SDS011;6832;51.186;3.236;2024-02-14T10:00:00;42.53;;;17.57;;
13520;SDS011;6832;51.186;3.236;2024-02-14T10:02:29;38.67;;;15.87;;
13520;SDS011;6832;51.186;3.236;2024-02-14T10:04:56;48.03;;;16.83;;
13520;SDS011;6832;51.186;3.236;2024-02-14T10:07:24;55.73;;;17.27;;
13520;SDS011;6832;51.186;3.236;2024-02-14T10:09:52;61.87;;;17.87;;
13520;SDS011;6832;51.186;3.236;2024-02-14T10:12:18;48.33;;;17.07;;
13520;SDS011;6832;51.186;3.236;2024-02-14T10:14:45;37.67;;;16.77;;
13520;SDS011;6832;51.186;3.236;2024-02-14T10:17:17;70.60;;;18.93;;
13520;SDS011;6832;51.186;3.236;2024-02-14T10:19:54;37.07;;;16.77;;
13520;SDS011;6832;51.186;3.236;2024-02-14T10:22:21;42.27;;;16.57;;
13520;SDS011;6832;51.186;3.236;2024-02-14T10:24:49;38.27;;;15.13;;
13520;SDS011;6832;51.186;3.236;2024-02-14T10:27:16;40.40;;;16.87;;
13520;SDS011;6832;51.186;3.236;2024-02-14T10:29:43;45.00;;;17.73;;
13520;SDS011;6832;51.186;3.236;2024-02-14T10:32:14;54.63;;;17.17;;
13520;SDS011;6832;51.186;3.236;2024-02-14T10:34:42;41.10;;;16.10;;
13520;SDS011;6832;51.186;3.236;2024-02-14T10:37:12;41.37;;;17.20;;
13520;SDS011;6832;51.186;3.236;2024-02-14T10:39:41;31.00;;;15.67;;
13520;SDS011;6832;51.186;3.236;2024-02-14T10:42:13;36.63;;;16.83;;
13520;SDS011;6832;51.186;3.236;2024-02-14T10:44:41;41.23;;;17.13;;
13520;SDS011;6832;51.186;3.236;2024-02-14T10:47:10;37.93;;;15.50;;
13520;SDS011;6832;51.186;3.236;2024-02-14T10:49:40;32.57;;;16.60;;
13520;SDS011;6832;51.186;3.236;2024-02-14T10:52:09;42.37;;;18.50;;
13520;SDS011;6832;51.186;3.236;2024-02-14T10:54:37;48.87;;;17.73;;
13520;SDS011;6832;51.186;3.236;2024-02-14T10:57:05;37.10;;;15.87;;
13520;SDS011;6832;51.186;3.236;2024-02-14T10:59:38;35.10;;;16.53;;
13520;SDS011;6832;51.186;3.236;2024-02-14T11:02:08;45.37;;;16.63;;
13520;SDS011;6832;51.186;3.236;2024-02-14T11:04:36;50.37;;;17.33;;
13520;SDS011;6832;51.186;3.236;2024-02-14T11:07:03;38.30;;;16.80;;
13520;SDS011;6832;51.186;3.236;2024-02-14T11:09:35;42.30;;;16.27;;
13520;SDS011;6832;51.186;3.236;2024-02-14T11:12:03;38.43;;;18.23;;
13520;SDS011;6832;51.186;3.236;2024-02-14T11:14:33;68.83;;;19.30;;
13520;SDS011;6832;51.186;3.236;2024-02-14T11:17:03;37.13;;;17.07;;
13520;SDS011;6832;51.186;3.236;2024-02-14T11:19:34;60.73;;;17.30;;
13520;SDS011;6832;51.186;3.236;2024-02-14T11:22:09;53.43;;;18.33;;
13520;SDS011;6832;51.186;3.236;2024-02-14T11:24:38;53.03;;;17.40;;
13520;SDS011;6832;51.186;3.236;2024-02-14T11:27:09;40.83;;;16.73;;
13520;SDS011;6832;51.186;3.236;2024-02-14T11:29:38;46.00;;;16.97;;
13520;SDS011;6832;51.186;3.236;2024-02-14T11:32:08;46.63;;;17.93;;
13520;SDS011;6832;51.186;3.236;2024-02-14T11:34:37;41.80;;;16.20;;
13520;SDS011;6832;51.186;3.236;2024-02-14T11:37:04;50.83;;;17.00;;
13520;SDS011;6832;51.186;3.236;2024-02-14T11:39:32;54.03;;;19.53;;
13520;SDS011;6832;51.186;3.236;2024-02-14T11:42:00;45.83;;;16.23;;
13520;SDS011;6832;51.186;3.236;2024-02-14T11:44:27;49.57;;;17.50;;
13520;SDS011;6832;51.186;3.236;2024-02-14T11:46:53;32.97;;;16.07;;
13520;SDS011;6832;51.186;3.236;2024-02-14T11:49:23;44.57;;;16.57;;
13520;SDS011;6832;51.186;3.236;2024-02-14T11:51:50;38.40;;;16.80;;
13520;SDS011;6832;51.186;3.236;2024-02-14T11:54:18;44.13;;;17.60;;
13520;SDS011;6832;51.186;3.236;2024-02-14T11:56:46;28.97;;;17.50;;
13520;SDS011;6832;51.186;3.236;2024-02-14T11:59:13;38.80;;;16.63;;
13520;SDS011;6832;51.186;3.236;2024-02-14T12:01:42;53.63;;;17.03;;
13520;SDS011;6832;51.186;3.236;2024-02-14T12:04:11;56.13;;;17.43;;
13520;SDS011;6832;51.186;3.236;2024-02-14T12:06:40;50.70;;;17.93;;
13520;SDS011;6832;51.186;3.236;2024-02-14T12:09:07;37.43;;;17.27;;
13520;SDS011;6832;51.186;3.236;2024-02-14T12:11:36;43.63;;;16.73;;
13520;SDS011;6832;51.186;3.236;2024-02-14T12:14:03;39.97;;;15.77;;
13520;SDS011;6832;51.186;3.236;2024-02-14T12:16:31;39.00;;;17.07;;
13520;SDS011;6832;51.186;3.236;2024-02-14T12:19:04;41.97;;;18.67;;
13520;SDS011;6832;51.186;3.236;2024-02-14T12:21:34;33.47;;;15.77;;
13520;SDS011;6832;51.186;3.236;2024-02-14T12:24:03;41.20;;;16.70;;
13520;SDS011;6832;51.186;3.236;2024-02-14T12:26:32;32.00;;;18.10;;
13520;SDS011;6832;51.186;3.236;2024-02-14T12:29:01;42.07;;;15.80;;
13520;SDS011;6832;51.186;3.236;2024-02-14T12:31:29;39.27;;;16.63;;
13520;SDS011;6832;51.186;3.236;2024-02-14T12:33:57;43.37;;;17.10;;
13520;SDS011;6832;51.186;3.236;2024-02-14T12:36:25;35.70;;;16.03;;
13520;SDS011;6832;51.186;3.236;2024-02-14T12:38:52;43.90;;;19.57;;
13520;SDS011;6832;51.186;3.236;2024-02-14T12:41:21;34.87;;;17.73;;
13520;SDS011;6832;51.186;3.236;2024-02-14T12:43:48;38.00;;;16.90;;
13520;SDS011;6832;51.186;3.236;2024-02-14T12:46:15;36.17;;;16.77;;
13520;SDS011;6832;51.186;3.236;2024-02-14T12:48:42;50.23;;;18.03;;
13520;SDS011;6832;51.186;3.236;2024-02-14T12:51:09;42.03;;;17.43;;
13520;SDS011;6832;51.186;3.236;2024-02-14T12:53:36;33.37;;;16.17;;
13520;SDS011;6832;51.186;3.236;2024-02-14T12:56:03;90.87;;;21.03;;
13520;SDS011;6832;51.186;3.236;2024-02-14T12:58:32;37.43;;;18.93;;
13520;SDS011;6832;51.186;3.236;2024-02-14T13:00:59;50.77;;;23.50;;
13520;SDS011;6832;51.186;3.236;2024-02-14T13:03:27;37.87;;;16.50;;
13520;SDS011;6832;51.186;3.236;2024-02-14T13:05:54;51.57;;;17.73;;
13520;SDS011;6832;51.186;3.236;2024-02-14T13:08:21;35.50;;;16.47;;
13520;SDS011;6832;51.186;3.236;2024-02-14T13:10:48;41.60;;;17.10;;
13520;SDS011;6832;51.186;3.236;2024-02-14T13:13:15;32.47;;;16.70;;
13520;SDS011;6832;51.186;3.236;2024-02-14T13:15:44;39.33;;;15.67;;
13520;SDS011;6832;51.186;3.236;2024-02-14T13:18:10;34.67;;;16.83;;
13520;SDS011;6832;51.186;3.236;2024-02-14T13:20:37;49.07;;;16.60;;
13520;SDS011;6832;51.186;3.236;2024-02-14T13:23:04;46.53;;;16.50;;
13520;SDS011;6832;51.186;3.236;2024-02-14T13:25:33;36.47;;;16.17;;
13520;SDS011;6832;51.186;3.236;2024-02-14T13:28:01;85.70;;;19.77;;
13520;SDS011;6832;51.186;3.236;2024-02-14T13:30:28;39.77;;;15.97;;
13520;SDS011;6832;51.186;3.236;2024-02-14T13:32:56;32.73;;;16.17;;
13520;SDS011;6832;51.186;3.236;2024-02-14T13:35:23;40.20;;;17.73;;
13520;SDS011;6832;51.186;3.236;2024-02-14T13:37:50;37.50;;;17.40;;
13520;SDS011;6832;51.186;3.236;2024-02-14T13:40:17;39.30;;;15.53;;
13520;SDS011;6832;51.186;3.236;2024-02-14T13:42:44;36.53;;;17.80;;
13520;SDS011;6832;51.186;3.236;2024-02-14T13:45:11;39.93;;;17.17;;
13520;SDS011;6832;51.186;3.236;2024-02-14T13:47:37;36.63;;;16.60;;
13520;SDS011;6832;51.186;3.236;2024-02-14T13:50:06;38.23;;;17.63;;
13520;SDS011;6832;51.186;3.236;2024-02-14T13:52:35;36.07;;;16.60;;
13520;SDS011;6832;51.186;3.236;2024-02-14T13:55:02;66.70;;;18.50;;
13520;SDS011;6832;51.186;3.236;2024-02-14T13:57:30;52.27;;;18.50;;
13520;SDS011;6832;51.186;3.236;2024-02-14T13:59:57;37.27;;;16.90;;
13520;SDS011;6832;51.186;3.236;2024-02-14T14:02:24;48.57;;;18.37;;
13520;SDS011;6832;51.186;3.236;2024-02-14T14:04:51;42.57;;;18.10;;
13520;SDS011;6832;51.186;3.236;2024-02-14T14:07:20;41.63;;;17.53;;
13520;SDS011;6832;51.186;3.236;2024-02-14T14:09:48;33.10;;;16.70;;
13520;SDS011;6832;51.186;3.236;2024-02-14T14:12:15;43.40;;;17.47;;
13520;SDS011;6832;51.186;3.236;2024-02-14T14:14:42;34.83;;;17.23;;
13520;SDS011;6832;51.186;3.236;2024-02-14T14:17:09;57.97;;;18.47;;
13520;SDS011;6832;51.186;3.236;2024-02-14T14:19:36;39.33;;;16.27;;
13520;SDS011;6832;51.186;3.236;2024-02-14T14:22:03;30.87;;;16.33;;
13520;SDS011;6832;51.186;3.236;2024-02-14T14:24:31;56.57;;;18.70;;
13520;SDS011;6832;51.186;3.236;2024-02-14T14:26:58;74.87;;;19.73;;
13520;SDS011;6832;51.186;3.236;2024-02-14T14:29:25;43.27;;;17.17;;
13520;SDS011;6832;51.186;3.236;2024-02-14T14:31:53;41.23;;;18.07;;
13520;SDS011;6832;51.186;3.236;2024-02-14T14:34:20;39.53;;;17.47;;
13520;SDS011;6832;51.186;3.236;2024-02-14T14:36:47;35.53;;;15.73;;